sensor_id;sensor_type;location;lat;lon;timestamp;P1;durP1;ratioP1;P2;durP2;ratioP2
22388;SDS011;11362;48.102;11.620;2023-03-30T00:02:12;3.50;;;1.80;;
22388;SDS011;11362;48.102;11.620;2023-03-30T00:04:37;4.87;;;1.73;;
22388;SDS011;11362;48.102;11.620;2023-03-30T00:07:02;2.70;;;1.33;;
22388;SDS011;11362;48.102;11.620;2023-03-30T00:09:28;2.40;;;1.63;;
22388;SDS011;11362;48.102;11.620;2023-03-30T00:11:53;2.80;;;1.30;;
22388;SDS011;11362;48.102;11.620;2023-03-30T00:14:18;2.20;;;1.13;;
22388;SDS011;11362;48.102;11.620;2023-03-30T00:16:44;2.40;;;1.63;;
22388;SDS011;11362;48.102;11.620;2023-03-30T00:19:09;4.33;;;1.50;;
22388;SDS011;11362;48.102;11.620;2023-03-30T00:21:34;2.07;;;1.07;;
22388;SDS011;11362;48.102;11.620;2023-03-30T00:23:59;2.20;;;1.20;;
22388;SDS011;11362;48.102;11.620;2023-03-30T00:26:25;2.70;;;1.80;;
22388;SDS011;11362;48.102;11.620;2023-03-30T00:28:50;1.90;;;1.43;;
22388;SDS011;11362;48.102;11.620;2023-03-30T00:31:15;3.47;;;1.30;;
22388;SDS011;11362;48.102;11.620;2023-03-30T00:33:41;3.67;;;1.17;;
22388;SDS011;11362;48.102;11.620;2023-03-30T00:36:06;1.80;;;1.50;;
22388;SDS011;11362;48.102;11.620;2023-03-30T00:38:32;4.47;;;1.20;;
22388;SDS011;11362;48.102;11.620;2023-03-30T00:40:58;1.10;;;0.97;;
22388;SDS011;11362;48.102;11.620;2023-03-30T00:43:24;1.53;;;1.33;;
22388;SDS011;11362;48.102;11.620;2023-03-30T00:45:50;1.73;;;0.97;;
22388;SDS011;11362;48.102;11.620;2023-03-30T00:48:27;1.47;;;1.00;;
22388;SDS011;11362;48.102;11.620;2023-03-30T00:51:03;1.93;;;1.17;;
22388;SDS011;11362;48.102;11.620;2023-03-30T00:56:00;2.60;;;1.13;;
22388;SDS011;11362;48.102;11.620;2023-03-30T00:58:27;1.83;;;1.03;;
22388;SDS011;11362;48.102;11.620;2023-03-30T01:00:55;1.77;;;1.10;;
22388;SDS011;11362;48.102;11.620;2023-03-30T01:06:24;2.30;;;1.30;;
22388;SDS011;11362;48.102;11.620;2023-03-30T01:08:51;1.40;;;1.20;;
22388;SDS011;11362;48.102;11.620;2023-03-30T01:11:17;2.37;;;1.30;;
22388;SDS011;11362;48.102;11.620;2023-03-30T01:13:43;2.63;;;1.27;;
22388;SDS011;11362;48.102;11.620;2023-03-30T01:16:26;1.93;;;1.17;;
22388;SDS011;11362;48.102;11.620;2023-03-30T01:24:10;2.93;;;1.47;;
22388;SDS011;11362;48.102;11.620;2023-03-30T01:26:57;2.33;;;1.27;;
22388;SDS011;11362;48.102;11.620;2023-03-30T01:32:01;1.60;;;1.07;;
22388;SDS011;11362;48.102;11.620;2023-03-30T01:42:43;1.87;;;1.10;;
22388;SDS011;11362;48.102;11.620;2023-03-30T01:45:26;3.30;;;1.07;;
22388;SDS011;11362;48.102;11.620;2023-03-30T01:50:48;2.10;;;1.23;;
22388;SDS011;11362;48.102;11.620;2023-03-30T01:53:31;1.67;;;1.10;;
22388;SDS011;11362;48.102;11.620;2023-03-30T01:58:52;2.07;;;1.00;;
22388;SDS011;11362;48.102;11.620;2023-03-30T02:01:23;1.23;;;1.13;;
22388;SDS011;11362;48.102;11.620;2023-03-30T02:03:54;1.47;;;1.30;;
22388;SDS011;11362;48.102;11.620;2023-03-30T02:06:23;2.97;;;1.57;;
22388;SDS011;11362;48.102;11.620;2023-03-30T02:08:53;1.67;;;1.27;;
22388;SDS011;11362;48.102;11.620;2023-03-30T02:11:21;2.53;;;1.03;;
22388;SDS011;11362;48.102;11.620;2023-03-30T02:13:48;2.40;;;1.40;;
22388;SDS011;11362;48.102;11.620;2023-03-30T02:16:21;1.10;;;0.80;;
22388;SDS011;11362;48.102;11.620;2023-03-30T02:18:53;3.63;;;1.13;;
22388;SDS011;11362;48.102;11.620;2023-03-30T02:21:19;3.03;;;1.50;;
22388;SDS011;11362;48.102;11.620;2023-03-30T02:23:44;1.93;;;0.93;;
22388;SDS011;11362;48.102;11.620;2023-03-30T02:26:11;1.53;;;1.00;;
22388;SDS011;11362;48.102;11.620;2023-03-30T02:28:37;2.03;;;1.03;;
22388;SDS011;11362;48.102;11.620;2023-03-30T02:31:03;3.07;;;1.10;;
22388;SDS011;11362;48.102;11.620;2023-03-30T02:34:17;2.53;;;1.40;;
22388;SDS011;11362;48.102;11.620;2023-03-30T02:39:35;2.17;;;1.17;;
22388;SDS011;11362;48.102;11.620;2023-03-30T02:42:22;3.13;;;1.00;;
22388;SDS011;11362;48.102;11.620;2023-03-30T02:50:33;2.27;;;1.23;;
22388;SDS011;11362;48.102;11.620;2023-03-30T02:58:50;1.70;;;1.07;;
22388;SDS011;11362;48.102;11.620;2023-03-30T03:01:28;1.03;;;0.97;;
22388;SDS011;11362;48.102;11.620;2023-03-30T03:04:01;2.40;;;0.93;;
22388;SDS011;11362;48.102;11.620;2023-03-30T03:06:28;1.47;;;1.00;;
22388;SDS011;11362;48.102;11.620;2023-03-30T03:08:54;1.60;;;0.87;;
22388;SDS011;11362;48.102;11.620;2023-03-30T03:11:20;1.87;;;1.03;;
22388;SDS011;11362;48.102;11.620;2023-03-30T03:13:46;2.20;;;1.20;;
22388;SDS011;11362;48.102;11.620;2023-03-30T03:16:12;1.60;;;1.00;;
22388;SDS011;11362;48.102;11.620;2023-03-30T03:18:38;2.20;;;1.10;;
22388;SDS011;11362;48.102;11.620;2023-03-30T03:21:04;2.00;;;0.70;;
22388;SDS011;11362;48.102;11.620;2023-03-30T03:23:30;2.07;;;0.80;;
22388;SDS011;11362;48.102;11.620;2023-03-30T03:25:56;2.07;;;0.97;;
22388;SDS011;11362;48.102;11.620;2023-03-30T03:28:21;1.73;;;0.90;;
22388;SDS011;11362;48.102;11.620;2023-03-30T03:30:49;2.23;;;1.20;;
22388;SDS011;11362;48.102;11.620;2023-03-30T03:33:15;1.20;;;1.10;;
22388;SDS011;11362;48.102;11.620;2023-03-30T03:35:41;2.97;;;1.10;;
22388;SDS011;11362;48.102;11.620;2023-03-30T03:38:06;1.47;;;1.00;;
22388;SDS011;11362;48.102;11.620;2023-03-30T03:40:31;2.27;;;0.93;;
22388;SDS011;11362;48.102;11.620;2023-03-30T03:42:56;1.67;;;1.13;;
22388;SDS011;11362;48.102;11.620;2023-03-30T03:45:22;4.03;;;1.30;;
22388;SDS011;11362;48.102;11.620;2023-03-30T03:47:51;1.50;;;1.10;;
22388;SDS011;11362;48.102;11.620;2023-03-30T03:50:16;2.83;;;1.00;;
22388;SDS011;11362;48.102;11.620;2023-03-30T03:52:42;2.33;;;1.23;;
22388;SDS011;11362;48.102;11.620;2023-03-30T03:55:07;1.77;;;1.07;;
22388;SDS011;11362;48.102;11.620;2023-03-30T03:57:33;2.37;;;0.97;;
22388;SDS011;11362;48.102;11.620;2023-03-30T03:59:58;2.13;;;1.20;;
22388;SDS011;11362;48.102;11.620;2023-03-30T04:02:24;1.80;;;1.40;;
22388;SDS011;11362;48.102;11.620;2023-03-30T04:04:50;2.47;;;1.13;;
22388;SDS011;11362;48.102;11.620;2023-03-30T04:07:15;1.73;;;1.00;;
22388;SDS011;11362;48.102;11.620;2023-03-30T04:09:40;3.93;;;1.17;;
22388;SDS011;11362;48.102;11.620;2023-03-30T04:12:05;1.37;;;1.13;;
22388;SDS011;11362;48.102;11.620;2023-03-30T04:14:31;1.20;;;1.00;;
22388;SDS011;11362;48.102;11.620;2023-03-30T04:16:56;4.33;;;1.43;;
22388;SDS011;11362;48.102;11.620;2023-03-30T04:19:21;2.13;;;1.23;;
22388;SDS011;11362;48.102;11.620;2023-03-30T04:21:46;3.33;;;1.30;;
22388;SDS011;11362;48.102;11.620;2023-03-30T04:24:12;1.17;;;1.03;;
22388;SDS011;11362;48.102;11.620;2023-03-30T04:26:37;2.10;;;1.20;;
22388;SDS011;11362;48.102;11.620;2023-03-30T04:29:03;2.53;;;1.20;;
22388;SDS011;11362;48.102;11.620;2023-03-30T04:31:28;1.47;;;0.90;;
22388;SDS011;11362;48.102;11.620;2023-03-30T04:33:54;1.70;;;1.23;;
22388;SDS011;11362;48.102;11.620;2023-03-30T04:36:19;2.07;;;1.13;;
22388;SDS011;11362;48.102;11.620;2023-03-30T04:38:45;3.13;;;1.23;;
22388;SDS011;11362;48.102;11.620;2023-03-30T04:41:11;2.20;;;1.40;;
22388;SDS011;11362;48.102;11.620;2023-03-30T04:43:36;3.37;;;1.30;;
22388;SDS011;11362;48.102;11.620;2023-03-30T04:46:01;3.97;;;1.53;;
22388;SDS011;11362;48.102;11.620;2023-03-30T04:48:27;1.93;;;1.10;;
22388;SDS011;11362;48.102;11.620;2023-03-30T04:50:52;2.83;;;1.17;;
22388;SDS011;11362;48.102;11.620;2023-03-30T04:53:17;2.27;;;0.90;;
22388;SDS011;11362;48.102;11.620;2023-03-30T04:55:46;3.03;;;1.10;;
22388;SDS011;11362;48.102;11.620;2023-03-30T04:58:12;6.87;;;1.97;;
22388;SDS011;11362;48.102;11.620;2023-03-30T05:00:37;6.47;;;1.73;;
22388;SDS011;11362;48.102;11.620;2023-03-30T05:03:03;7.87;;;2.20;;
22388;SDS011;11362;48.102;11.620;2023-03-30T05:05:29;11.03;;;2.93;;
22388;SDS011;11362;48.102;11.620;2023-03-30T05:07:55;10.40;;;2.60;;
22388;SDS011;11362;48.102;11.620;2023-03-30T05:10:20;12.50;;;2.40;;
22388;SDS011;11362;48.102;11.620;2023-03-30T05:12:45;13.80;;;2.30;;
22388;SDS011;11362;48.102;11.620;2023-03-30T05:15:11;8.60;;;2.03;;
22388;SDS011;11362;48.102;11.620;2023-03-30T05:17:37;14.97;;;2.77;;
22388;SDS011;11362;48.102;11.620;2023-03-30T05:20:02;16.57;;;2.47;;
22388;SDS011;11362;48.102;11.620;2023-03-30T05:22:28;11.60;;;2.50;;
22388;SDS011;11362;48.102;11.620;2023-03-30T05:24:53;10.00;;;2.30;;
22388;SDS011;11362;48.102;11.620;2023-03-30T05:27:19;12.00;;;3.13;;
22388;SDS011;11362;48.102;11.620;2023-03-30T05:29:44;14.67;;;3.10;;
22388;SDS011;11362;48.102;11.620;2023-03-30T05:32:09;10.27;;;2.70;;
22388;SDS011;11362;48.102;11.620;2023-03-30T05:34:35;6.77;;;2.27;;
22388;SDS011;11362;48.102;11.620;2023-03-30T05:37:00;15.13;;;2.07;;
22388;SDS011;11362;48.102;11.620;2023-03-30T05:39:26;9.37;;;2.43;;
22388;SDS011;11362;48.102;11.620;2023-03-30T05:41:51;11.93;;;2.80;;
22388;SDS011;11362;48.102;11.620;2023-03-30T05:44:16;15.60;;;2.77;;
22388;SDS011;11362;48.102;11.620;2023-03-30T05:46:42;9.00;;;2.53;;
22388;SDS011;11362;48.102;11.620;2023-03-30T05:49:07;12.60;;;2.80;;
22388;SDS011;11362;48.102;11.620;2023-03-30T05:51:32;8.23;;;2.27;;
22388;SDS011;11362;48.102;11.620;2023-03-30T05:53:57;8.83;;;2.70;;
22388;SDS011;11362;48.102;11.620;2023-03-30T05:56:23;16.30;;;2.90;;
22388;SDS011;11362;48.102;11.620;2023-03-30T05:58:48;24.13;;;3.70;;
22388;SDS011;11362;48.102;11.620;2023-03-30T06:01:13;21.60;;;3.67;;
22388;SDS011;11362;48.102;11.620;2023-03-30T06:03:38;19.57;;;4.17;;
22388;SDS011;11362;48.102;11.620;2023-03-30T06:06:04;20.53;;;4.03;;
22388;SDS011;11362;48.102;11.620;2023-03-30T06:08:30;20.07;;;4.27;;
22388;SDS011;11362;48.102;11.620;2023-03-30T06:10:56;23.07;;;4.50;;
22388;SDS011;11362;48.102;11.620;2023-03-30T06:13:22;14.30;;;3.63;;
22388;SDS011;11362;48.102;11.620;2023-03-30T06:15:47;15.77;;;3.83;;
22388;SDS011;11362;48.102;11.620;2023-03-30T06:18:13;18.87;;;3.47;;
22388;SDS011;11362;48.102;11.620;2023-03-30T06:20:38;13.97;;;3.30;;
22388;SDS011;11362;48.102;11.620;2023-03-30T06:23:04;16.80;;;3.37;;
22388;SDS011;11362;48.102;11.620;2023-03-30T06:25:29;12.83;;;3.77;;
22388;SDS011;11362;48.102;11.620;2023-03-30T06:27:55;12.30;;;3.20;;
22388;SDS011;11362;48.102;11.620;2023-03-30T06:30:21;11.43;;;3.20;;
22388;SDS011;11362;48.102;11.620;2023-03-30T06:32:46;9.93;;;2.53;;
22388;SDS011;11362;48.102;11.620;2023-03-30T06:35:11;13.30;;;2.83;;
22388;SDS011;11362;48.102;11.620;2023-03-30T06:37:37;8.20;;;2.33;;
22388;SDS011;11362;48.102;11.620;2023-03-30T06:40:03;11.57;;;3.30;;
22388;SDS011;11362;48.102;11.620;2023-03-30T06:42:29;12.10;;;2.70;;
22388;SDS011;11362;48.102;11.620;2023-03-30T06:44:54;16.00;;;2.97;;
22388;SDS011;11362;48.102;11.620;2023-03-30T06:47:19;14.53;;;2.77;;
22388;SDS011;11362;48.102;11.620;2023-03-30T06:49:45;10.93;;;2.93;;
22388;SDS011;11362;48.102;11.620;2023-03-30T06:52:10;8.80;;;2.60;;
22388;SDS011;11362;48.102;11.620;2023-03-30T06:54:35;13.03;;;3.27;;
22388;SDS011;11362;48.102;11.620;2023-03-30T06:57:02;11.77;;;3.37;;
22388;SDS011;11362;48.102;11.620;2023-03-30T06:59:27;15.67;;;3.30;;
22388;SDS011;11362;48.102;11.620;2023-03-30T07:01:52;17.57;;;3.17;;
22388;SDS011;11362;48.102;11.620;2023-03-30T07:04:18;14.07;;;3.07;;
22388;SDS011;11362;48.102;11.620;2023-03-30T07:06:43;17.73;;;3.10;;
22388;SDS011;11362;48.102;11.620;2023-03-30T07:09:08;11.20;;;4.00;;
22388;SDS011;11362;48.102;11.620;2023-03-30T07:11:33;11.80;;;2.93;;
22388;SDS011;11362;48.102;11.620;2023-03-30T07:13:59;13.60;;;3.40;;
22388;SDS011;11362;48.102;11.620;2023-03-30T07:16:24;10.73;;;3.07;;
22388;SDS011;11362;48.102;11.620;2023-03-30T07:18:49;12.83;;;3.17;;
22388;SDS011;11362;48.102;11.620;2023-03-30T07:21:15;13.53;;;3.00;;
22388;SDS011;11362;48.102;11.620;2023-03-30T07:23:40;7.83;;;3.07;;
22388;SDS011;11362;48.102;11.620;2023-03-30T07:26:06;14.23;;;3.50;;
22388;SDS011;11362;48.102;11.620;2023-03-30T07:28:31;9.37;;;2.77;;
22388;SDS011;11362;48.102;11.620;2023-03-30T07:31:06;11.00;;;2.93;;
22388;SDS011;11362;48.102;11.620;2023-03-30T07:33:33;9.77;;;2.50;;
22388;SDS011;11362;48.102;11.620;2023-03-30T07:35:59;10.63;;;3.33;;
22388;SDS011;11362;48.102;11.620;2023-03-30T07:38:24;8.07;;;2.63;;
22388;SDS011;11362;48.102;11.620;2023-03-30T07:40:50;8.03;;;2.20;;
22388;SDS011;11362;48.102;11.620;2023-03-30T07:43:15;13.57;;;2.60;;
22388;SDS011;11362;48.102;11.620;2023-03-30T07:45:40;12.30;;;2.93;;
22388;SDS011;11362;48.102;11.620;2023-03-30T07:48:06;10.07;;;2.67;;
22388;SDS011;11362;48.102;11.620;2023-03-30T07:50:31;13.07;;;3.70;;
22388;SDS011;11362;48.102;11.620;2023-03-30T07:52:56;14.23;;;3.63;;
22388;SDS011;11362;48.102;11.620;2023-03-30T07:55:21;17.43;;;4.10;;
22388;SDS011;11362;48.102;11.620;2023-03-30T07:57:47;13.00;;;3.90;;
22388;SDS011;11362;48.102;11.620;2023-03-30T08:00:12;16.27;;;3.80;;
22388;SDS011;11362;48.102;11.620;2023-03-30T08:02:38;15.90;;;3.37;;
22388;SDS011;11362;48.102;11.620;2023-03-30T08:05:03;13.60;;;3.10;;
22388;SDS011;11362;48.102;11.620;2023-03-30T08:07:29;10.93;;;3.53;;
22388;SDS011;11362;48.102;11.620;2023-03-30T08:09:54;12.10;;;3.80;;
22388;SDS011;11362;48.102;11.620;2023-03-30T08:12:19;9.10;;;3.23;;
22388;SDS011;11362;48.102;11.620;2023-03-30T08:14:45;14.57;;;3.70;;
22388;SDS011;11362;48.102;11.620;2023-03-30T08:17:10;14.37;;;3.40;;
22388;SDS011;11362;48.102;11.620;2023-03-30T08:19:35;12.70;;;3.40;;
22388;SDS011;11362;48.102;11.620;2023-03-30T08:22:01;11.53;;;3.77;;
22388;SDS011;11362;48.102;11.620;2023-03-30T08:24:26;10.70;;;2.97;;
22388;SDS011;11362;48.102;11.620;2023-03-30T08:26:51;13.73;;;3.70;;
22388;SDS011;11362;48.102;11.620;2023-03-30T08:29:17;9.83;;;3.50;;
22388;SDS011;11362;48.102;11.620;2023-03-30T08:31:42;10.17;;;2.53;;
22388;SDS011;11362;48.102;11.620;2023-03-30T08:34:07;6.37;;;3.50;;
22388;SDS011;11362;48.102;11.620;2023-03-30T08:36:33;9.20;;;2.97;;
22388;SDS011;11362;48.102;11.620;2023-03-30T08:38:58;9.47;;;2.60;;
22388;SDS011;11362;48.102;11.620;2023-03-30T08:43:52;10.50;;;2.97;;
22388;SDS011;11362;48.102;11.620;2023-03-30T08:46:22;9.47;;;3.30;;
22388;SDS011;11362;48.102;11.620;2023-03-30T08:48:48;11.20;;;2.87;;
22388;SDS011;11362;48.102;11.620;2023-03-30T08:53:46;8.33;;;2.80;;
22388;SDS011;11362;48.102;11.620;2023-03-30T08:56:20;7.43;;;3.00;;
22388;SDS011;11362;48.102;11.620;2023-03-30T09:07:20;9.87;;;4.97;;
22388;SDS011;11362;48.102;11.620;2023-03-30T09:09:48;9.97;;;7.50;;
22388;SDS011;11362;48.102;11.620;2023-03-30T09:15:14;10.50;;;6.47;;
22388;SDS011;11362;48.102;11.620;2023-03-30T09:17:44;8.63;;;6.13;;
22388;SDS011;11362;48.102;11.620;2023-03-30T09:20:14;9.00;;;6.00;;
22388;SDS011;11362;48.102;11.620;2023-03-30T09:22:46;9.03;;;5.20;;
22388;SDS011;11362;48.102;11.620;2023-03-30T09:25:14;14.17;;;6.13;;
22388;SDS011;11362;48.102;11.620;2023-03-30T09:27:59;9.93;;;5.20;;
22388;SDS011;11362;48.102;11.620;2023-03-30T09:30:40;7.47;;;5.23;;
22388;SDS011;11362;48.102;11.620;2023-03-30T09:33:13;8.40;;;5.07;;
22388;SDS011;11362;48.102;11.620;2023-03-30T09:35:59;8.80;;;4.93;;
22388;SDS011;11362;48.102;11.620;2023-03-30T09:38:31;7.33;;;4.70;;
22388;SDS011;11362;48.102;11.620;2023-03-30T09:41:15;9.37;;;4.73;;
22388;SDS011;11362;48.102;11.620;2023-03-30T09:43:46;8.20;;;4.53;;
22388;SDS011;11362;48.102;11.620;2023-03-30T09:46:14;9.13;;;4.70;;
22388;SDS011;11362;48.102;11.620;2023-03-30T09:48:40;14.13;;;4.73;;
22388;SDS011;11362;48.102;11.620;2023-03-30T09:51:18;7.93;;;4.77;;
22388;SDS011;11362;48.102;11.620;2023-03-30T09:53:49;8.83;;;4.70;;
22388;SDS011;11362;48.102;11.620;2023-03-30T09:58:43;12.13;;;4.77;;
22388;SDS011;11362;48.102;11.620;2023-03-30T10:01:09;9.80;;;4.20;;
22388;SDS011;11362;48.102;11.620;2023-03-30T10:03:37;7.53;;;4.30;;
22388;SDS011;11362;48.102;11.620;2023-03-30T10:08:31;7.63;;;4.07;;
22388;SDS011;11362;48.102;11.620;2023-03-30T10:10:58;9.37;;;4.40;;
22388;SDS011;11362;48.102;11.620;2023-03-30T10:13:57;12.13;;;4.00;;
22388;SDS011;11362;48.102;11.620;2023-03-30T10:16:21;8.97;;;3.97;;
22388;SDS011;11362;48.102;11.620;2023-03-30T10:18:51;8.90;;;3.67;;
22388;SDS011;11362;48.102;11.620;2023-03-30T10:21:19;11.13;;;4.13;;
22388;SDS011;11362;48.102;11.620;2023-03-30T10:23:57;11.00;;;4.47;;
22388;SDS011;11362;48.102;11.620;2023-03-30T10:26:44;9.00;;;3.87;;
22388;SDS011;11362;48.102;11.620;2023-03-30T10:29:14;8.27;;;4.07;;
22388;SDS011;11362;48.102;11.620;2023-03-30T10:31:42;6.90;;;3.97;;
22388;SDS011;11362;48.102;11.620;2023-03-30T10:34:17;7.00;;;4.07;;
22388;SDS011;11362;48.102;11.620;2023-03-30T10:36:52;10.80;;;3.80;;
22388;SDS011;11362;48.102;11.620;2023-03-30T10:39:31;8.40;;;3.53;;
22388;SDS011;11362;48.102;11.620;2023-03-30T10:41:59;11.60;;;3.70;;
22388;SDS011;11362;48.102;11.620;2023-03-30T10:44:31;8.67;;;4.27;;
22388;SDS011;11362;48.102;11.620;2023-03-30T10:49:58;7.47;;;3.90;;
22388;SDS011;11362;48.102;11.620;2023-03-30T10:52:28;8.73;;;3.70;;
22388;SDS011;11362;48.102;11.620;2023-03-30T10:55:17;9.37;;;3.80;;
22388;SDS011;11362;48.102;11.620;2023-03-30T10:58:11;6.73;;;3.80;;
22388;SDS011;11362;48.102;11.620;2023-03-30T11:00:59;11.37;;;3.93;;
22388;SDS011;11362;48.102;11.620;2023-03-30T11:03:32;6.40;;;3.50;;
22388;SDS011;11362;48.102;11.620;2023-03-30T11:06:05;11.93;;;4.00;;
22388;SDS011;11362;48.102;11.620;2023-03-30T11:08:38;6.60;;;3.43;;
22388;SDS011;11362;48.102;11.620;2023-03-30T11:11:20;7.70;;;3.77;;
22388;SDS011;11362;48.102;11.620;2023-03-30T11:13:59;9.20;;;3.80;;
22388;SDS011;11362;48.102;11.620;2023-03-30T11:16:35;6.50;;;3.63;;
22388;SDS011;11362;48.102;11.620;2023-03-30T11:19:25;8.77;;;3.67;;
22388;SDS011;11362;48.102;11.620;2023-03-30T11:22:05;16.40;;;5.03;;
22388;SDS011;11362;48.102;11.620;2023-03-30T11:24:40;24.07;;;7.93;;
22388;SDS011;11362;48.102;11.620;2023-03-30T11:27:14;23.30;;;12.47;;
22388;SDS011;11362;48.102;11.620;2023-03-30T11:29:56;24.30;;;8.20;;
22388;SDS011;11362;48.102;11.620;2023-03-30T11:35:44;13.90;;;7.07;;
22388;SDS011;11362;48.102;11.620;2023-03-30T11:38:13;16.83;;;7.03;;
22388;SDS011;11362;48.102;11.620;2023-03-30T11:40:46;19.03;;;6.67;;
22388;SDS011;11362;48.102;11.620;2023-03-30T11:43:14;12.83;;;6.40;;
22388;SDS011;11362;48.102;11.620;2023-03-30T11:57:30;14.00;;;5.90;;
22388;SDS011;11362;48.102;11.620;2023-03-30T12:05:43;14.30;;;5.37;;
22388;SDS011;11362;48.102;11.620;2023-03-30T12:11:19;14.10;;;5.00;;
22388;SDS011;11362;48.102;11.620;2023-03-30T12:13:54;10.83;;;4.47;;
22388;SDS011;11362;48.102;11.620;2023-03-30T12:16:28;10.23;;;4.87;;
22388;SDS011;11362;48.102;11.620;2023-03-30T12:19:18;12.83;;;4.13;;
22388;SDS011;11362;48.102;11.620;2023-03-30T12:27:17;13.07;;;4.07;;
22388;SDS011;11362;48.102;11.620;2023-03-30T12:34:48;9.60;;;4.00;;
22388;SDS011;11362;48.102;11.620;2023-03-30T12:37:18;9.50;;;3.83;;
22388;SDS011;11362;48.102;11.620;2023-03-30T12:43:01;12.17;;;3.77;;
22388;SDS011;11362;48.102;11.620;2023-03-30T12:46:00;9.97;;;3.33;;
22388;SDS011;11362;48.102;11.620;2023-03-30T12:59:42;9.70;;;3.00;;
22388;SDS011;11362;48.102;11.620;2023-03-30T13:05:02;14.90;;;3.40;;
22388;SDS011;11362;48.102;11.620;2023-03-30T13:07:30;10.40;;;3.40;;
22388;SDS011;11362;48.102;11.620;2023-03-30T13:10:00;12.23;;;3.47;;
22388;SDS011;11362;48.102;11.620;2023-03-30T13:12:46;11.93;;;3.07;;
22388;SDS011;11362;48.102;11.620;2023-03-30T13:17:47;7.60;;;2.90;;
22388;SDS011;11362;48.102;11.620;2023-03-30T13:20:20;6.27;;;2.33;;
22388;SDS011;11362;48.102;11.620;2023-03-30T13:23:36;6.77;;;2.83;;
22388;SDS011;11362;48.102;11.620;2023-03-30T13:25:44;6.43;;;2.77;;
22388;SDS011;11362;48.102;11.620;2023-03-30T13:30:53;5.53;;;2.30;;
22388;SDS011;11362;48.102;11.620;2023-03-30T13:33:25;4.07;;;2.30;;
22388;SDS011;11362;48.102;11.620;2023-03-30T13:35:54;11.70;;;3.40;;
22388;SDS011;11362;48.102;11.620;2023-03-30T13:38:50;8.97;;;2.77;;
22388;SDS011;11362;48.102;11.620;2023-03-30T13:47:02;10.60;;;2.93;;
22388;SDS011;11362;48.102;11.620;2023-03-30T13:49:49;11.60;;;2.83;;
22388;SDS011;11362;48.102;11.620;2023-03-30T13:52:26;9.80;;;2.50;;
22388;SDS011;11362;48.102;11.620;2023-03-30T13:54:56;8.63;;;2.60;;
22388;SDS011;11362;48.102;11.620;2023-03-30T13:57:23;11.93;;;2.13;;
22388;SDS011;11362;48.102;11.620;2023-03-30T14:00:05;15.73;;;2.73;;
22388;SDS011;11362;48.102;11.620;2023-03-30T14:02:37;11.37;;;3.03;;
22388;SDS011;11362;48.102;11.620;2023-03-30T14:05:17;10.97;;;2.80;;
22388;SDS011;11362;48.102;11.620;2023-03-30T14:07:48;13.83;;;3.43;;
22388;SDS011;11362;48.102;11.620;2023-03-30T14:10:17;11.00;;;3.47;;
22388;SDS011;11362;48.102;11.620;2023-03-30T14:12:46;14.63;;;3.00;;
22388;SDS011;11362;48.102;11.620;2023-03-30T14:15:24;16.13;;;4.00;;
22388;SDS011;11362;48.102;11.620;2023-03-30T14:17:57;30.87;;;5.13;;
22388;SDS011;11362;48.102;11.620;2023-03-30T14:20:27;25.73;;;4.67;;
22388;SDS011;11362;48.102;11.620;2023-03-30T14:23:05;22.57;;;4.80;;
22388;SDS011;11362;48.102;11.620;2023-03-30T14:25:33;19.33;;;4.40;;
22388;SDS011;11362;48.102;11.620;2023-03-30T14:28:06;26.23;;;4.73;;
22388;SDS011;11362;48.102;11.620;2023-03-30T14:30:37;30.93;;;5.53;;
22388;SDS011;11362;48.102;11.620;2023-03-30T14:33:06;31.83;;;5.30;;
22388;SDS011;11362;48.102;11.620;2023-03-30T14:35:35;27.20;;;5.97;;
22388;SDS011;11362;48.102;11.620;2023-03-30T14:38:04;30.03;;;5.83;;
22388;SDS011;11362;48.102;11.620;2023-03-30T14:40:30;40.13;;;6.43;;
22388;SDS011;11362;48.102;11.620;2023-03-30T14:42:55;34.97;;;5.30;;
22388;SDS011;11362;48.102;11.620;2023-03-30T14:45:21;36.90;;;6.67;;
22388;SDS011;11362;48.102;11.620;2023-03-30T14:47:46;28.00;;;6.43;;
22388;SDS011;11362;48.102;11.620;2023-03-30T14:50:13;30.63;;;5.67;;
22388;SDS011;11362;48.102;11.620;2023-03-30T14:52:41;34.83;;;6.03;;
22388;SDS011;11362;48.102;11.620;2023-03-30T14:55:11;26.70;;;6.13;;
22388;SDS011;11362;48.102;11.620;2023-03-30T14:57:41;37.07;;;6.30;;
22388;SDS011;11362;48.102;11.620;2023-03-30T15:00:12;30.33;;;6.23;;
22388;SDS011;11362;48.102;11.620;2023-03-30T15:02:40;53.73;;;8.17;;
22388;SDS011;11362;48.102;11.620;2023-03-30T15:05:06;56.13;;;8.90;;
22388;SDS011;11362;48.102;11.620;2023-03-30T15:07:33;53.97;;;10.10;;
22388;SDS011;11362;48.102;11.620;2023-03-30T15:09:59;66.23;;;9.83;;
22388;SDS011;11362;48.102;11.620;2023-03-30T15:12:26;61.03;;;9.93;;
22388;SDS011;11362;48.102;11.620;2023-03-30T15:14:57;63.43;;;10.00;;
22388;SDS011;11362;48.102;11.620;2023-03-30T15:17:25;48.30;;;8.63;;
22388;SDS011;11362;48.102;11.620;2023-03-30T15:19:52;54.77;;;8.67;;
22388;SDS011;11362;48.102;11.620;2023-03-30T15:22:23;40.33;;;8.00;;
22388;SDS011;11362;48.102;11.620;2023-03-30T15:24:52;58.77;;;9.50;;
22388;SDS011;11362;48.102;11.620;2023-03-30T15:27:20;36.90;;;7.40;;
22388;SDS011;11362;48.102;11.620;2023-03-30T15:29:47;45.67;;;9.17;;
22388;SDS011;11362;48.102;11.620;2023-03-30T15:34:55;46.33;;;7.90;;
22388;SDS011;11362;48.102;11.620;2023-03-30T15:37:23;54.90;;;8.57;;
22388;SDS011;11362;48.102;11.620;2023-03-30T15:39:48;40.70;;;8.00;;
22388;SDS011;11362;48.102;11.620;2023-03-30T15:42:22;45.57;;;8.60;;
22388;SDS011;11362;48.102;11.620;2023-03-30T15:44:58;47.73;;;8.80;;
22388;SDS011;11362;48.102;11.620;2023-03-30T15:47:25;47.97;;;9.37;;
22388;SDS011;11362;48.102;11.620;2023-03-30T15:49:50;46.10;;;9.67;;
22388;SDS011;11362;48.102;11.620;2023-03-30T15:52:23;47.50;;;8.53;;
22388;SDS011;11362;48.102;11.620;2023-03-30T15:54:55;41.37;;;8.50;;
22388;SDS011;11362;48.102;11.620;2023-03-30T15:57:27;61.73;;;10.70;;
22388;SDS011;11362;48.102;11.620;2023-03-30T15:59:58;76.13;;;12.27;;
22388;SDS011;11362;48.102;11.620;2023-03-30T16:05:00;39.90;;;6.53;;
22388;SDS011;11362;48.102;11.620;2023-03-30T16:07:26;40.63;;;7.83;;
22388;SDS011;11362;48.102;11.620;2023-03-30T16:09:51;47.77;;;7.80;;
22388;SDS011;11362;48.102;11.620;2023-03-30T16:12:26;32.20;;;6.37;;
22388;SDS011;11362;48.102;11.620;2023-03-30T16:14:54;34.47;;;7.40;;
22388;SDS011;11362;48.102;11.620;2023-03-30T16:17:20;28.33;;;6.43;;
22388;SDS011;11362;48.102;11.620;2023-03-30T16:19:46;40.80;;;6.77;;
22388;SDS011;11362;48.102;11.620;2023-03-30T16:22:11;58.57;;;8.57;;
22388;SDS011;11362;48.102;11.620;2023-03-30T16:24:38;51.50;;;8.70;;
22388;SDS011;11362;48.102;11.620;2023-03-30T16:27:04;43.50;;;8.97;;
22388;SDS011;11362;48.102;11.620;2023-03-30T16:29:30;70.47;;;9.90;;
22388;SDS011;11362;48.102;11.620;2023-03-30T16:31:56;80.93;;;11.70;;
22388;SDS011;11362;48.102;11.620;2023-03-30T16:34:22;63.37;;;11.43;;
22388;SDS011;11362;48.102;11.620;2023-03-30T16:36:48;68.27;;;11.10;;
22388;SDS011;11362;48.102;11.620;2023-03-30T16:39:21;70.27;;;10.90;;
22388;SDS011;11362;48.102;11.620;2023-03-30T16:41:47;74.60;;;12.03;;
22388;SDS011;11362;48.102;11.620;2023-03-30T16:44:12;47.90;;;9.50;;
22388;SDS011;11362;48.102;11.620;2023-03-30T16:46:38;52.23;;;10.20;;
22388;SDS011;11362;48.102;11.620;2023-03-30T16:49:05;54.10;;;10.33;;
22388;SDS011;11362;48.102;11.620;2023-03-30T16:51:34;51.00;;;9.23;;
22388;SDS011;11362;48.102;11.620;2023-03-30T16:54:00;63.70;;;10.63;;